Chippewa Falls, WI

7:49 AM CST on December 09, 2016 (GMT -0600)
Lafayette | | Change Station

Elev 928 ft 44.92 °N, 91.32 °W | Updated 17 seconds ago

Overcast
Overcast
11.3 °F
Feels Like 11 °F
N
0.0
Wind Variable Wind from West

Today
High -- | Low -- °F
--% Chance of Precip.
Yesterday
High -- | Low -- °F
Precip. -- in
Pressure 30.56 in
Visibility 10.0 miles
Clouds Overcast 6500 ft
Windchill 11 °F
Dew Point 10 °F
Humidity 93%
Rainfall 0.00 in
Snow Depth Not available.
7:32 AM 4:24 PM
Waxing Gibbous, 74% visible
METAR KEAU 091256Z 23004KT 10SM OVC065 M12/M13 A3050 RMK AO2 SLP347 T11171128
Pressure 30.56 in
Visibility 10.0 miles
Clouds Overcast 6500 ft
Windchill 11 °F
Dew Point 10 °F
Humidity 93%
Rainfall 0.00 in
Snow Depth Not available.
7:32 AM 4:24 PM
Waxing Gibbous, 74% visible
METAR KEAU 091256Z 23004KT 10SM OVC065 M12/M13 A3050 RMK AO2 SLP347 T11171128

10-Day Weather Forecast

Almanac

Astronomy

Dec. 09, 2016 Rise Set
Actual Time
Civil Twilight
Nautical Twilight
Astronomical Twilight
Moon
Length of Visible Light
Length of Day
Tomorrow will be .
, % of the Moon is Illuminated

Today's Extremes

State Highs State Lows

Community

WunderPhotos

Upload Photos

1,956,407 photos uploaded!

WunderBlog® & News

Nearby

Air Quality

  Air Quality AQ Index Pollutant
Not available.

Snow Depth

Station Depth Elevation

Earthquake Activity

City Distance Mag. Time & Date
Minimum magnitude displayed is 2.5.

Coastal Water Temperatures

Place Temperature

Stations

Nearby Weather Stations

Station Location Temp. Windchill Dew Point Humidity Wind Precip. Elev Updated Type
                   

Watches & Warnings

There are currently no watches in effect.